createdAt,value
2017-11-07T00:01:18.358Z,102136.37
2017-11-07T00:03:51.620Z,102132.77
2017-11-07T00:06:29.021Z,102136.00
2017-11-07T00:11:49.577Z,102135.98
2017-11-07T00:14:29.281Z,102128.12
2017-11-07T00:17:04.406Z,102130.86
2017-11-07T00:19:41.071Z,102121.24
2017-11-07T00:22:12.070Z,102104.39
2017-11-07T00:24:43.167Z,102124.31
2017-11-07T00:27:18.863Z,102125.22
2017-11-07T00:30:06.659Z,102125.52
2017-11-07T00:32:38.203Z,102122.85
2017-11-07T00:35:08.766Z,102112.30
2017-11-07T00:38:05.670Z,102109.62
2017-11-07T00:45:36.384Z,102114.41
2017-11-07T00:48:16.451Z,102096.32
2017-11-07T00:50:47.995Z,102100.63
2017-11-07T00:53:18.403Z,102100.86
2017-11-07T00:55:49.418Z,102095.20
2017-11-07T00:58:20.134Z,102098.30
2017-11-07T01:00:52.669Z,102094.74
2017-11-07T01:03:24.810Z,102097.38
2017-11-07T01:05:55.562Z,102097.64
2017-11-07T01:08:27.148Z,102097.42
2017-11-07T01:10:59.263Z,102092.66
2017-11-07T01:13:31.055Z,102094.48
2017-11-07T01:16:07.046Z,102091.40
2017-11-07T01:18:38.494Z,102088.79
2017-11-07T01:21:11.941Z,102087.39
2017-11-07T01:23:44.195Z,102084.05
2017-11-07T01:26:15.250Z,102081.94
2017-11-07T01:28:45.905Z,102084.55
2017-11-07T01:31:17.622Z,102084.27
2017-11-07T01:33:48.418Z,102082.41
2017-11-07T01:36:18.828Z,102078.58
2017-11-07T01:38:48.975Z,102079.30
2017-11-07T01:41:19.370Z,102077.06
2017-11-07T01:46:59.572Z,102076.92
2017-11-07T01:49:30.169Z,102078.48
2017-11-07T01:52:02.139Z,102073.13
2017-11-07T01:54:33.199Z,102070.79
2017-11-07T01:57:08.435Z,102065.66
2017-11-07T01:59:38.863Z,102079.72
2017-11-07T02:02:10.391Z,102078.92
2017-11-07T02:04:45.354Z,102067.97
2017-11-07T02:07:15.691Z,102063.34
2017-11-07T02:09:46.563Z,102068.48
2017-11-07T02:12:16.879Z,102069.31
2017-11-07T02:14:47.233Z,102064.13
2017-11-07T02:17:18.361Z,102069.50
2017-11-07T02:19:49.053Z,102059.68
2017-11-07T02:22:19.573Z,102057.06
2017-11-07T02:24:50.852Z,102054.90
2017-11-07T02:27:21.405Z,102048.09
2017-11-07T02:32:53.287Z,102051.67
2017-11-07T02:35:26.825Z,102051.67
2017-11-07T02:37:57.574Z,102057.72
2017-11-07T02:40:28.143Z,102052.64
2017-11-07T02:43:01.327Z,102039.31
2017-11-07T02:45:32.735Z,102031.34
2017-11-07T02:48:05.472Z,102035.09
2017-11-07T02:50:41.632Z,102036.23
2017-11-07T02:53:13.441Z,102030.97
2017-11-07T02:55:45.158Z,102037.30
2017-11-07T02:58:16.259Z,102034.83
2017-11-07T03:00:49.289Z,102035.91
2017-11-07T03:03:25.223Z,102040.90
2017-11-07T03:05:56.919Z,102035.56
2017-11-07T03:08:38.931Z,102036.01
2017-11-07T03:11:22.189Z,102043.34
2017-11-07T03:13:54.544Z,102039.66
2017-11-07T03:16:30.399Z,102029.72
2017-11-07T03:19:25.115Z,102035.38
2017-11-07T03:22:01.881Z,102030.19
2017-11-07T03:24:39.300Z,102029.61
2017-11-07T03:27:10.348Z,102027.30
2017-11-07T03:29:42.410Z,102027.94
2017-11-07T03:32:15.833Z,102022.14
2017-11-07T03:34:46.355Z,102023.04
2017-11-07T03:37:17.974Z,102029.72
2017-11-07T03:39:50.650Z,102020.27
2017-11-07T03:42:21.590Z,102025.06
2017-11-07T03:44:52.262Z,102016.57
2017-11-07T03:47:25.740Z,102021.73
2017-11-07T03:49:57.668Z,102028.61
2017-11-07T03:52:28.704Z,102017.80
2017-11-07T03:58:12.006Z,102020.02
2017-11-07T04:00:44.873Z,102018.98
2017-11-07T04:03:28.562Z,102017.13
2017-11-07T04:05:59.685Z,102010.36
2017-11-07T04:08:31.302Z,102013.30
2017-11-07T04:11:01.765Z,102011.02
2017-11-07T04:13:36.997Z,102005.15
2017-11-07T04:16:17.319Z,102004.47
2017-11-07T04:18:48.970Z,102009.91
2017-11-07T04:21:25.372Z,102018.28
2017-11-07T04:23:57.080Z,102006.36
2017-11-07T04:26:28.232Z,102012.45
2017-11-07T04:29:03.554Z,102005.20
2017-11-07T04:31:40.049Z,102000.56
2017-11-07T04:37:08.545Z,102000.44
2017-11-07T04:39:39.390Z,102006.44
2017-11-07T04:42:11.564Z,102010.70
2017-11-07T04:44:42.030Z,102007.58
2017-11-07T04:47:18.027Z,102005.30
2017-11-07T04:49:48.523Z,102003.64
2017-11-07T04:52:19.100Z,102003.11
2017-11-07T04:54:50.456Z,102008.14
2017-11-07T04:57:21.162Z,102012.61
2017-11-07T04:59:52.750Z,102009.58
2017-11-07T05:02:23.357Z,102009.27
2017-11-07T05:04:54.205Z,102014.03
2017-11-07T05:07:28.109Z,101999.66
2017-11-07T05:10:00.841Z,102002.96
2017-11-07T05:12:31.927Z,102006.27
2017-11-07T05:15:05.212Z,102008.78
2017-11-07T05:17:37.240Z,102005.64
2017-11-07T05:20:09.718Z,102013.50
2017-11-07T05:22:41.569Z,102005.22
2017-11-07T05:25:13.369Z,102004.97
2017-11-07T05:27:44.185Z,102009.41
2017-11-07T05:30:17.655Z,102018.27
2017-11-07T05:32:53.943Z,102005.63
2017-11-07T05:35:24.909Z,102008.64
2017-11-07T05:38:21.753Z,102010.03
2017-11-07T05:40:53.369Z,102011.19
2017-11-07T05:43:24.362Z,102007.81
2017-11-07T05:46:04.489Z,101986.83
2017-11-07T05:48:35.992Z,102009.08
2017-11-07T05:51:07.084Z,102014.92
2017-11-07T05:53:39.243Z,102005.60
2017-11-07T05:56:23.212Z,102010.53
2017-11-07T06:05:22.797Z,101999.56
2017-11-07T06:17:52.304Z,102005.98
2017-11-07T06:20:23.112Z,102008.85
2017-11-07T06:22:53.905Z,102001.33
2017-11-07T06:25:24.188Z,102001.11
2017-11-07T06:27:55.447Z,102004.58
2017-11-07T06:30:31.025Z,102006.79
2017-11-07T06:33:02.306Z,102008.48
2017-11-07T06:38:42.567Z,101997.53
2017-11-07T06:41:15.255Z,102005.13
2017-11-07T06:43:46.703Z,101998.59
2017-11-07T06:46:21.215Z,101959.74
2017-11-07T06:48:56.327Z,101984.09
2017-11-07T06:54:34.922Z,101987.88
2017-11-07T06:57:07.510Z,101987.22
2017-11-07T06:59:40.794Z,101985.84
2017-11-07T07:02:14.797Z,101971.05
2017-11-07T07:06:38.516Z,101984.95
2017-11-07T07:09:12.969Z,101986.27
2017-11-07T07:11:50.411Z,101981.12
2017-11-07T07:14:34.020Z,101975.83
2017-11-07T07:17:08.466Z,101975.34
2017-11-07T07:19:44.492Z,101976.49
2017-11-07T07:22:22.453Z,101981.53
2017-11-07T07:36:04.114Z,101971.08
2017-11-07T07:38:38.554Z,101980.20
2017-11-07T07:41:14.688Z,101974.19
2017-11-07T07:43:44.914Z,101954.61
2017-11-07T07:46:20.557Z,101964.56
2017-11-07T07:48:53.845Z,101964.00
2017-11-07T07:51:25.007Z,101963.03
2017-11-07T07:53:56.794Z,101959.92
2017-11-07T07:56:28.108Z,101959.21
2017-11-07T07:58:59.887Z,101957.06
2017-11-07T08:01:30.871Z,101948.77
2017-11-07T08:04:05.158Z,101950.91
2017-11-07T08:06:36.644Z,101954.45
2017-11-07T08:09:08.362Z,101959.21
2017-11-07T08:11:45.300Z,101961.53
2017-11-07T08:14:17.738Z,101963.32
2017-11-07T08:16:49.754Z,101961.34
2017-11-07T08:19:30.300Z,101954.08
2017-11-07T08:22:00.674Z,101953.38
2017-11-07T08:24:30.859Z,101954.61
2017-11-07T08:27:01.553Z,101957.16
2017-11-07T08:29:31.949Z,101949.59
2017-11-07T08:35:09.558Z,101938.21
2017-11-07T08:37:41.937Z,101944.91
2017-11-07T08:40:13.805Z,101931.76
2017-11-07T08:42:46.430Z,101943.34
2017-11-07T08:45:22.640Z,101941.84
2017-11-07T08:47:57.762Z,101938.11
2017-11-07T08:50:29.079Z,101946.62
2017-11-07T08:52:59.672Z,101948.06
2017-11-07T08:55:30.407Z,101941.23
2017-11-07T08:58:25.248Z,101939.34
2017-11-07T09:01:00.182Z,101935.86
2017-11-07T09:06:23.676Z,101926.48
2017-11-07T09:08:59.190Z,101893.03
2017-11-07T09:11:31.029Z,101930.66
2017-11-07T09:16:50.936Z,101925.63
2017-11-07T09:19:23.182Z,101924.52
2017-11-07T09:21:53.663Z,101910.75
2017-11-07T09:24:27.490Z,101921.94
2017-11-07T09:26:59.408Z,101924.11
2017-11-07T09:29:37.644Z,101911.87
2017-11-07T09:32:09.471Z,101917.77
2017-11-07T09:34:40.097Z,101922.25
2017-11-07T09:37:15.193Z,101906.12
2017-11-07T09:39:47.026Z,101908.81
2017-11-07T09:45:38.018Z,101912.15
2017-11-07T09:48:31.569Z,101914.33
2017-11-07T09:51:18.014Z,101910.95
2017-11-07T09:53:54.996Z,101909.67
2017-11-07T09:56:27.053Z,101900.32
2017-11-07T09:59:01.875Z,101897.56
2017-11-07T10:01:34.539Z,101894.47
2017-11-07T10:04:08.744Z,101892.46
2017-11-07T10:06:43.088Z,101880.38
2017-11-07T10:09:14.305Z,101867.73
2017-11-07T10:11:45.240Z,101873.83
2017-11-07T10:17:20.764Z,101866.02
2017-11-07T10:19:52.761Z,101868.08
2017-11-07T10:22:23.131Z,101853.06
2017-11-07T10:24:54.901Z,101842.94
2017-11-07T10:27:25.827Z,101840.23
2017-11-07T10:29:56.848Z,101842.09
2017-11-07T10:32:39.001Z,101833.34
2017-11-07T10:35:11.911Z,101828.17
2017-11-07T10:37:43.001Z,101824.78
2017-11-07T10:40:16.097Z,101818.38
2017-11-07T10:42:49.199Z,101810.48
2017-11-07T10:47:51.711Z,101797.33
2017-11-07T10:50:24.581Z,101799.58
2017-11-07T10:53:01.631Z,101778.19
2017-11-07T10:55:36.637Z,101790.41
2017-11-07T10:58:21.650Z,101787.28
2017-11-07T11:00:54.553Z,101785.45
2017-11-07T11:03:29.231Z,101783.28
2017-11-07T11:05:59.577Z,101774.86
2017-11-07T11:08:30.330Z,101775.66
2017-11-07T11:11:02.094Z,101768.44
2017-11-07T11:13:33.395Z,101748.10
2017-11-07T11:16:11.047Z,101767.08
2017-11-07T11:18:43.895Z,101766.46
2017-11-07T11:21:16.027Z,101764.95
2017-11-07T11:23:46.517Z,101770.42
2017-11-07T11:26:21.226Z,101761.54
2017-11-07T11:28:52.492Z,101756.44
2017-11-07T11:31:24.125Z,101751.42
2017-11-07T11:33:55.574Z,101740.59
2017-11-07T11:36:33.579Z,101741.82
2017-11-07T11:39:19.001Z,101735.97
2017-11-07T11:41:50.853Z,101739.53
2017-11-07T11:44:22.448Z,101730.66
2017-11-07T11:46:53.330Z,101735.50
2017-11-07T11:49:29.637Z,101736.48
2017-11-07T11:52:30.517Z,101732.09
2017-11-07T11:55:12.141Z,101704.41
2017-11-07T11:57:47.663Z,101699.62
2017-11-07T12:00:21.435Z,101714.00
2017-11-07T12:02:55.106Z,101702.49
2017-11-07T12:05:29.592Z,101702.10
2017-11-07T12:08:10.912Z,101703.60
2017-11-07T12:10:41.616Z,101688.55
2017-11-07T12:13:20.603Z,101691.92
2017-11-07T12:16:01.744Z,101685.17
2017-11-07T12:18:41.326Z,101674.95
2017-11-07T12:21:29.613Z,101681.42
2017-11-07T12:24:04.326Z,101683.88
2017-11-07T12:26:39.885Z,101674.30
2017-11-07T12:29:18.723Z,101670.51
2017-11-07T12:31:49.742Z,101661.98
2017-11-07T12:34:20.423Z,101661.03
2017-11-07T12:36:53.175Z,101662.18
2017-11-07T12:39:28.239Z,101656.47
2017-11-07T12:42:00.705Z,101632.97
2017-11-07T12:44:32.011Z,101651.19
2017-11-07T12:47:02.456Z,101649.23
2017-11-07T12:49:33.653Z,101633.04
2017-11-07T12:52:25.538Z,101642.64
2017-11-07T12:54:55.899Z,101638.81
2017-11-07T12:57:34.114Z,101630.98
2017-11-07T13:00:22.671Z,101624.73
2017-11-07T13:03:07.788Z,101614.51
2017-11-07T13:05:42.041Z,101628.03
2017-11-07T13:08:16.059Z,101618.84
2017-11-07T13:10:47.524Z,101626.45
2017-11-07T13:13:32.145Z,101627.45
2017-11-07T13:18:55.223Z,101615.18
2017-11-07T13:21:38.584Z,101616.39
2017-11-07T13:24:14.231Z,101610.38
2017-11-07T13:26:52.541Z,101612.22
2017-11-07T13:29:34.331Z,101602.68
2017-11-07T13:32:07.230Z,101601.52
2017-11-07T13:34:38.159Z,101612.55
2017-11-07T13:37:14.063Z,101608.92
2017-11-07T13:39:47.976Z,101604.70
2017-11-07T13:42:22.668Z,101610.03
2017-11-07T13:45:01.475Z,101609.27
2017-11-07T13:49:56.717Z,101611.34
2017-11-07T13:55:29.154Z,101596.45
2017-11-07T13:58:00.251Z,101593.28
2017-11-07T14:03:41.135Z,101577.09
2017-11-07T14:06:19.488Z,101581.87
2017-11-07T14:08:53.526Z,101575.16
2017-11-07T14:11:35.623Z,101575.43
2017-11-07T14:14:10.640Z,101569.32
2017-11-07T14:16:47.869Z,101570.77
2017-11-07T14:22:03.628Z,101555.53
2017-11-07T14:24:43.805Z,101564.03
2017-11-07T14:27:16.981Z,101561.16
2017-11-07T14:29:52.122Z,101553.16
2017-11-07T14:32:25.866Z,101539.47
2017-11-07T14:34:58.956Z,101557.81
2017-11-07T14:37:29.852Z,101549.09
2017-11-07T14:40:08.415Z,101550.06
2017-11-07T14:42:50.554Z,101515.25
2017-11-07T14:45:25.099Z,101542.77
2017-11-07T14:47:59.602Z,101547.16
2017-11-07T14:50:34.025Z,101543.82
2017-11-07T14:53:18.223Z,101538.16
2017-11-07T14:55:51.094Z,101542.66
2017-11-07T14:58:22.165Z,101533.04
2017-11-07T15:01:17.782Z,101538.20
2017-11-07T15:03:50.126Z,101531.61
2017-11-07T15:06:21.028Z,101528.59
2017-11-07T15:08:55.873Z,101530.89
2017-11-07T15:11:26.986Z,101529.09
2017-11-07T15:14:12.284Z,101525.89
2017-11-07T15:16:43.662Z,101514.44
2017-11-07T15:19:27.497Z,101522.81
2017-11-07T15:22:23.571Z,101516.34
2017-11-07T15:25:56.390Z,101515.06
2017-11-07T15:28:28.506Z,101515.02
2017-11-07T15:31:15.126Z,101514.16
2017-11-07T15:33:48.615Z,101502.75
2017-11-07T15:36:26.931Z,101496.41
2017-11-07T15:39:18.502Z,101499.13
2017-11-07T15:42:06.853Z,101491.75
2017-11-07T15:47:30.728Z,101495.86
2017-11-07T15:50:06.307Z,101462.39
2017-11-07T15:52:38.209Z,101506.15
2017-11-07T15:55:11.643Z,101506.69
2017-11-07T15:57:44.236Z,101505.63
2017-11-07T16:00:23.143Z,101505.98
2017-11-07T16:02:54.573Z,101501.69
2017-11-07T16:05:26.214Z,101502.97
2017-11-07T16:08:03.447Z,101512.81
2017-11-07T16:10:45.183Z,101514.77
2017-11-07T16:13:18.706Z,101512.40
2017-11-07T16:15:52.254Z,101468.59
2017-11-07T16:18:24.652Z,101511.23
2017-11-07T16:21:04.844Z,101522.36
2017-11-07T16:23:38.942Z,101524.34
2017-11-07T16:26:11.447Z,101516.16
2017-11-07T16:28:44.546Z,101515.59
2017-11-07T16:31:18.780Z,101516.66
2017-11-07T16:36:50.547Z,101511.13
2017-11-07T16:39:26.522Z,101510.45
2017-11-07T16:42:00.785Z,101509.61
2017-11-07T16:44:39.029Z,101502.95
2017-11-07T16:47:22.118Z,101502.64
2017-11-07T16:50:12.667Z,101501.09
2017-11-07T16:52:53.173Z,101498.86
2017-11-07T16:55:51.271Z,101492.73
2017-11-07T16:58:27.304Z,101496.84
2017-11-07T17:01:02.284Z,101495.31
2017-11-07T17:03:39.313Z,101487.34
2017-11-07T17:06:16.097Z,101488.37
2017-11-07T17:08:47.730Z,101492.66
2017-11-07T17:11:19.512Z,101486.97
2017-11-07T17:13:51.393Z,101485.20
2017-11-07T17:16:24.944Z,101481.83
2017-11-07T17:19:03.341Z,101485.57
2017-11-07T17:21:36.354Z,101464.69
2017-11-07T17:24:09.279Z,101467.61
2017-11-07T17:26:43.001Z,101471.10
2017-11-07T17:29:20.034Z,101481.48
2017-11-07T17:31:51.577Z,101480.80
2017-11-07T17:34:28.049Z,101480.69
2017-11-07T17:37:03.565Z,101467.78
2017-11-07T17:39:35.999Z,101479.24
2017-11-07T17:42:11.399Z,101465.75
2017-11-07T17:44:43.401Z,101468.89
2017-11-07T17:47:15.796Z,101459.42
2017-11-07T17:49:52.440Z,101461.81
2017-11-07T17:52:26.620Z,101459.00
2017-11-07T17:55:00.657Z,101463.59
2017-11-07T17:57:43.949Z,101458.92
2017-11-07T18:00:43.412Z,101462.77
2017-11-07T18:03:16.633Z,101441.23
2017-11-07T18:05:51.145Z,101454.83
2017-11-07T18:08:42.538Z,101455.62
2017-11-07T18:11:23.461Z,101453.05
2017-11-07T18:13:58.949Z,101449.58
2017-11-07T18:16:37.492Z,101443.87
2017-11-07T18:19:22.066Z,101448.91
2017-11-07T18:21:59.129Z,101443.20
2017-11-07T18:24:32.184Z,101441.53
2017-11-07T18:27:09.296Z,101424.60
2017-11-07T18:29:48.216Z,101427.95
2017-11-07T18:32:21.800Z,101436.67
2017-11-07T18:34:55.727Z,101430.96
2017-11-07T18:37:30.330Z,101425.80
2017-11-07T18:40:25.005Z,101433.67
2017-11-07T18:43:32.258Z,101432.64
2017-11-07T18:46:22.861Z,101421.86
2017-11-07T18:49:17.775Z,101414.87
2017-11-07T18:51:53.550Z,101411.70
2017-11-07T18:54:29.603Z,101404.38
2017-11-07T19:03:24.352Z,101406.64
2017-11-07T19:06:16.106Z,101410.39
2017-11-07T19:08:51.898Z,101387.95
2017-11-07T19:11:28.509Z,101404.80
2017-11-07T19:14:05.558Z,101400.59
2017-11-07T19:16:52.467Z,101401.17
2017-11-07T19:19:26.690Z,101395.84
2017-11-07T19:22:10.377Z,101404.50
2017-11-07T19:27:21.869Z,101405.94
2017-11-07T19:30:21.150Z,101387.81
2017-11-07T19:32:58.457Z,101395.98
2017-11-07T19:35:34.857Z,101392.60
2017-11-07T19:38:15.031Z,101387.78
2017-11-07T19:40:48.364Z,101385.45
2017-11-07T19:43:22.188Z,101374.34
2017-11-07T19:45:56.223Z,101384.39
2017-11-07T19:48:39.555Z,101384.88
2017-11-07T19:51:32.505Z,101384.61
2017-11-07T19:54:08.383Z,101375.72
2017-11-07T20:01:31.985Z,101360.22
2017-11-07T20:04:14.690Z,101381.16
2017-11-07T20:06:46.923Z,101385.72
2017-11-07T20:09:39.607Z,101376.14
2017-11-07T20:12:11.967Z,101379.28
2017-11-07T20:14:54.584Z,101364.92
2017-11-07T20:17:32.147Z,101367.70
2017-11-07T20:20:06.030Z,101360.16
2017-11-07T20:22:39.111Z,101366.75
2017-11-07T20:25:20.255Z,101361.50
2017-11-07T20:27:57.765Z,101357.48
2017-11-07T20:30:35.256Z,101341.91
2017-11-07T20:33:12.413Z,101361.89
2017-11-07T20:35:45.709Z,101355.52
2017-11-07T20:38:22.588Z,101368.48
2017-11-07T20:40:53.825Z,101370.27
2017-11-07T20:43:25.404Z,101370.56
2017-11-07T20:45:57.422Z,101374.36
2017-11-07T20:48:36.076Z,101364.85
2017-11-07T20:51:11.519Z,101362.03
2017-11-07T20:53:44.594Z,101360.16
2017-11-07T20:56:17.999Z,101361.80
2017-11-07T20:58:51.097Z,101361.55
2017-11-07T21:01:27.875Z,101365.19
2017-11-07T21:03:59.146Z,101362.31
2017-11-07T21:06:40.543Z,101351.70
2017-11-07T21:11:51.946Z,101359.00
2017-11-07T21:14:40.428Z,101351.30
2017-11-07T21:17:13.100Z,101347.58
2017-11-07T21:19:45.276Z,101349.16
2017-11-07T21:22:31.619Z,101341.59
2017-11-07T21:25:03.290Z,101347.03
2017-11-07T21:27:35.589Z,101357.59
2017-11-07T21:30:20.555Z,101349.66
2017-11-07T21:32:52.698Z,101358.49
2017-11-07T21:35:29.173Z,101352.03
2017-11-07T21:38:01.641Z,101353.64
2017-11-07T21:40:39.694Z,101348.20
2017-11-07T21:43:17.326Z,101340.89
2017-11-07T21:45:50.177Z,101333.13
2017-11-07T21:48:22.829Z,101340.21
2017-11-07T21:50:55.675Z,101329.02
2017-11-07T21:53:27.612Z,101333.36
2017-11-07T21:56:02.311Z,101328.81
2017-11-07T21:58:34.792Z,101323.96
2017-11-07T22:01:07.932Z,101336.67
2017-11-07T22:06:26.378Z,101332.59
2017-11-07T22:09:04.294Z,101321.81
2017-11-07T22:14:43.531Z,101320.89
2017-11-07T22:17:25.277Z,101321.56
2017-11-07T22:19:56.271Z,101319.31
2017-11-07T22:22:30.681Z,101323.96
2017-11-07T22:27:52.929Z,101322.26
2017-11-07T22:33:16.955Z,101313.61
2017-11-07T22:35:48.620Z,101325.45
2017-11-07T22:38:28.115Z,101319.31
2017-11-07T22:41:00.240Z,101315.39
2017-11-07T22:43:33.146Z,101316.38
2017-11-07T22:46:07.304Z,101324.08
2017-11-07T22:48:53.764Z,101319.84
2017-11-07T22:51:29.791Z,101313.20
2017-11-07T22:54:02.294Z,101305.09
2017-11-07T22:56:35.444Z,101312.41
2017-11-07T22:59:09.551Z,101292.31
2017-11-07T23:01:49.939Z,101300.66
2017-11-07T23:04:36.551Z,101302.06
2017-11-07T23:07:08.760Z,101302.59
2017-11-07T23:09:43.048Z,101302.66
2017-11-07T23:12:14.319Z,101300.84
2017-11-07T23:14:50.864Z,101297.70
2017-11-07T23:17:24.533Z,101298.45
2017-11-07T23:20:05.030Z,101302.41
2017-11-07T23:22:41.454Z,101266.96
2017-11-07T23:25:28.624Z,101297.95
2017-11-07T23:28:08.395Z,101291.37
2017-11-07T23:30:41.953Z,101294.78
2017-11-07T23:33:15.736Z,101298.45
2017-11-07T23:35:47.013Z,101300.92
2017-11-07T23:38:20.405Z,101296.81
2017-11-07T23:40:52.137Z,101300.34
2017-11-07T23:43:30.117Z,101304.93
2017-11-07T23:46:03.086Z,101301.12
2017-11-07T23:48:34.065Z,101299.73
2017-11-07T23:51:20.269Z,101297.30
2017-11-07T23:54:00.668Z,101298.16
2017-11-07T23:56:33.543Z,101295.67
2017-11-07T23:59:12.125Z,101289.86
